createdAt,value
2018-03-26T00:00:10.120Z,7
2018-03-26T00:05:05.740Z,7
2018-03-26T00:10:02.900Z,7
2018-03-26T00:15:05.101Z,7
2018-03-26T00:20:20.513Z,7
2018-03-26T00:25:04.970Z,7
2018-03-26T00:30:02.613Z,7
2018-03-26T00:35:10.848Z,7
2018-03-26T00:40:05.482Z,7
2018-03-26T00:45:07.659Z,6.9
2018-03-26T00:50:03.273Z,6.9
2018-03-26T00:55:02.895Z,6.9
2018-03-26T01:00:02.510Z,6.8
2018-03-26T01:05:05.727Z,6.9
2018-03-26T01:10:07.899Z,6.8
2018-03-26T01:15:02.496Z,6.8
2018-03-26T01:20:03.264Z,6.8
2018-03-26T01:25:02.924Z,6.8
2018-03-26T01:30:07.638Z,6.7
2018-03-26T01:35:05.714Z,6.6
2018-03-26T01:40:02.865Z,6.6
2018-03-26T01:45:02.477Z,6.6
2018-03-26T01:50:05.610Z,6.5
2018-03-26T01:55:02.755Z,6.5
2018-03-26T02:00:05.990Z,6.4
2018-03-26T02:05:05.188Z,6.4
2018-03-26T02:10:03.039Z,6.4
2018-03-26T02:15:04.985Z,6.4
2018-03-26T02:20:04.960Z,6.3
2018-03-26T02:25:10.315Z,6.3
2018-03-26T02:30:02.706Z,6.3
2018-03-26T02:35:02.929Z,6.3
2018-03-26T02:40:02.747Z,6.3
2018-03-26T02:45:05.684Z,6.2
2018-03-26T02:50:08.103Z,6.2
2018-03-26T02:55:07.486Z,6.2
2018-03-26T03:00:05.340Z,6.2
2018-03-26T03:05:08.244Z,6.2
2018-03-26T03:10:05.593Z,6.2
2018-03-26T03:15:04.974Z,6.2
2018-03-26T03:20:07.461Z,6.2
2018-03-26T03:25:05.264Z,6.2
2018-03-26T03:30:07.715Z,6.2
2018-03-26T03:35:02.936Z,6.2
2018-03-26T03:40:10.375Z,6.1
2018-03-26T03:45:08.104Z,6.1
2018-03-26T03:50:07.481Z,6.1
2018-03-26T03:55:05.257Z,6.1
2018-03-26T04:00:02.593Z,6.1
2018-03-26T04:05:05.408Z,6.1
2018-03-26T04:10:10.859Z,6.1
2018-03-26T04:15:12.753Z,6
2018-03-26T04:20:04.938Z,6
2018-03-26T04:25:05.279Z,6
2018-03-26T04:30:02.644Z,5.9
2018-03-26T04:35:08.088Z,5.9
2018-03-26T04:40:05.375Z,5.9
2018-03-26T04:45:15.930Z,5.8
2018-03-26T04:50:08.409Z,5.8
2018-03-26T04:55:25.456Z,5.8
2018-03-26T05:00:02.829Z,5.8
2018-03-26T05:05:08.315Z,5.8
2018-03-26T05:10:05.707Z,5.8
2018-03-26T05:15:05.061Z,5.8
2018-03-26T05:20:07.582Z,5.7
2018-03-26T05:25:05.399Z,5.8
2018-03-26T05:30:10.335Z,5.7
2018-03-26T05:35:10.705Z,5.7
2018-03-26T05:40:07.576Z,5.7
2018-03-26T05:45:17.969Z,5.7
2018-03-26T05:50:05.856Z,5.7
2018-03-26T05:55:10.153Z,5.8
2018-03-26T06:00:10.061Z,5.8
2018-03-26T06:05:17.932Z,5.8
2018-03-26T06:10:07.774Z,5.8
2018-03-26T06:15:15.715Z,5.8
2018-03-26T06:20:13.210Z,5.9
2018-03-26T06:25:02.391Z,5.9
2018-03-26T06:30:22.663Z,6
2018-03-26T06:35:10.347Z,6
2018-03-26T06:40:18.292Z,6.1
2018-03-26T06:45:05.210Z,6.2
2018-03-26T06:50:12.670Z,6.2
2018-03-26T06:55:13.011Z,6.2
2018-03-26T07:00:05.877Z,6.2
2018-03-26T07:05:05.294Z,6.3
2018-03-26T07:10:05.687Z,6.3
2018-03-26T07:15:02.491Z,6.3
2018-03-26T07:20:28.181Z,6.3
2018-03-26T07:25:02.506Z,6.3
2018-03-26T07:30:07.891Z,6.4
2018-03-26T07:35:05.704Z,6.4
2018-03-26T07:40:05.226Z,6.5
2018-03-26T07:45:10.623Z,6.4
2018-03-26T07:50:13.029Z,6.5
2018-03-26T07:55:08.375Z,6.5
2018-03-26T08:00:02.756Z,6.5
2018-03-26T08:05:08.044Z,6.7
2018-03-26T08:10:10.451Z,6.8
2018-03-26T08:15:18.377Z,6.8
2018-03-26T08:20:10.416Z,6.8
2018-03-26T08:25:05.667Z,6.8
2018-03-26T08:30:08.011Z,6.8
2018-03-26T08:35:03.285Z,6.8
2018-03-26T08:40:10.711Z,6.8
2018-03-26T08:45:20.543Z,6.8
2018-03-26T08:50:10.609Z,6.9
2018-03-26T08:55:02.435Z,6.9
2018-03-26T09:00:02.906Z,7
2018-03-26T09:05:10.922Z,7.1
2018-03-26T09:10:12.896Z,7.2
2018-03-26T09:15:20.771Z,7.2
2018-03-26T09:20:03.182Z,7.2
2018-03-26T09:25:05.102Z,7.2
2018-03-26T09:30:07.485Z,7.2
2018-03-26T09:35:02.755Z,7.2
2018-03-26T09:40:05.124Z,7.4
2018-03-26T09:45:15.589Z,7.5
2018-03-26T09:50:25.675Z,7.4
2018-03-26T09:55:05.529Z,7.5
2018-03-26T10:00:20.578Z,7.5
2018-03-26T10:05:08.377Z,7.6
2018-03-26T10:10:08.261Z,7.7
2018-03-26T10:15:35.575Z,7.8
2018-03-26T10:20:03.039Z,7.8
2018-03-26T10:25:05.903Z,7.5
2018-03-26T10:30:03.310Z,7.5
2018-03-26T10:35:10.224Z,7.6
2018-03-26T10:40:03.041Z,7.6
2018-03-26T10:45:07.614Z,7.6
2018-03-26T10:50:08.064Z,7.5
2018-03-26T10:55:03.321Z,7.6
2018-03-26T11:00:02.691Z,7.5
2018-03-26T11:05:05.614Z,7.4
2018-03-26T11:10:15.225Z,7.3
2018-03-26T11:15:02.777Z,7.4
2018-03-26T11:20:05.697Z,7.4
2018-03-26T11:25:02.506Z,7.3
2018-03-26T11:30:02.897Z,7.3
2018-03-26T11:35:07.456Z,7.3
2018-03-26T11:40:07.474Z,7.3
2018-03-26T11:45:05.268Z,7.2
2018-03-26T11:50:05.114Z,7.3
2018-03-26T11:55:02.963Z,7.2
2018-03-26T12:00:05.877Z,7.2
2018-03-26T12:05:05.144Z,7.3
2018-03-26T12:10:10.610Z,7.4
2018-03-26T12:15:03.333Z,7.3
2018-03-26T12:20:05.274Z,7.4
2018-03-26T12:25:13.240Z,7.6
2018-03-26T12:30:07.645Z,7.7
2018-03-26T12:35:05.510Z,7.9
2018-03-26T12:40:04.934Z,7.9
2018-03-26T12:45:05.310Z,7.8
2018-03-26T12:50:07.753Z,7.7
2018-03-26T12:55:05.520Z,7.9
2018-03-26T13:00:07.990Z,7.9
2018-03-26T13:05:08.349Z,8
2018-03-26T13:10:05.702Z,8.1
2018-03-26T13:15:02.569Z,8.1
2018-03-26T13:20:05.517Z,9.3
2018-03-26T13:25:02.399Z,8.9
2018-03-26T13:30:15.408Z,10.7
2018-03-26T13:35:03.078Z,10.7
2018-03-26T13:40:05.437Z,12.4
2018-03-26T13:45:05.844Z,12.7
2018-03-26T13:50:03.320Z,12.7
2018-03-26T13:55:02.746Z,12.6
2018-03-26T14:00:05.604Z,13.3
2018-03-26T14:05:10.095Z,13
2018-03-26T14:10:02.934Z,13
2018-03-26T14:15:03.316Z,12.2
2018-03-26T14:20:02.737Z,13.3
2018-03-26T14:25:15.882Z,14.3
2018-03-26T14:30:08.352Z,13.5
2018-03-26T14:35:02.605Z,13.5
2018-03-26T14:40:12.706Z,12.8
2018-03-26T14:45:02.920Z,12.8
2018-03-26T14:50:05.829Z,14.1
2018-03-26T14:55:05.249Z,15
2018-03-26T15:00:05.148Z,16.2
2018-03-26T15:05:13.162Z,18.1
2018-03-26T15:10:05.547Z,19
2018-03-26T15:15:02.398Z,19
2018-03-26T15:20:02.872Z,18.2
2018-03-26T15:25:05.819Z,16.9
2018-03-26T15:30:18.360Z,15.7
2018-03-26T15:35:10.244Z,14.9
2018-03-26T15:40:03.100Z,14.9
2018-03-26T15:45:02.677Z,14.4
2018-03-26T15:50:05.707Z,12.8
2018-03-26T15:55:07.656Z,12.4
2018-03-26T16:00:15.637Z,12.1
2018-03-26T16:05:04.926Z,11.8
2018-03-26T16:10:05.369Z,11.8
2018-03-26T16:15:10.762Z,11.6
2018-03-26T16:20:08.244Z,11.3
2018-03-26T16:25:20.242Z,10.8
2018-03-26T16:30:05.147Z,10.6
2018-03-26T16:35:08.081Z,10.4
2018-03-26T16:45:03.118Z,10.1
2018-03-26T16:50:25.203Z,9.2
2018-03-26T16:55:02.556Z,9.2
2018-03-26T17:00:07.920Z,8.8
2018-03-26T17:05:08.320Z,8.6
2018-03-26T17:10:05.648Z,8.4
2018-03-26T17:15:05.045Z,8.2
2018-03-26T17:20:02.466Z,8.2
2018-03-26T17:25:05.343Z,7.8
2018-03-26T17:30:02.696Z,7.8
2018-03-26T17:35:03.044Z,7.7
2018-03-26T17:40:10.453Z,7.5
2018-03-26T17:45:05.680Z,7.4
2018-03-26T17:50:03.044Z,7.4
2018-03-26T17:55:07.443Z,7.2
2018-03-26T18:00:05.362Z,7.1
2018-03-26T18:05:03.125Z,7
2018-03-26T18:10:18.114Z,6.7
2018-03-26T18:15:05.801Z,6.7
2018-03-26T18:20:05.773Z,6.6
2018-03-26T18:25:07.724Z,6.4
2018-03-26T18:30:05.561Z,6.3
2018-03-26T18:35:08.433Z,6.1
2018-03-26T18:40:03.309Z,6.1
2018-03-26T18:45:05.213Z,5.9
2018-03-26T18:50:10.118Z,5.8
2018-03-26T18:55:07.944Z,5.6
2018-03-26T19:00:08.363Z,5.5
2018-03-26T19:05:05.228Z,5.5
2018-03-26T19:10:18.351Z,5.4
2018-03-26T19:15:07.547Z,5.3
2018-03-26T19:20:08.065Z,5.2
2018-03-26T19:25:18.534Z,5.1
2018-03-26T19:30:07.930Z,5
2018-03-26T19:35:05.763Z,4.8
2018-03-26T19:40:05.111Z,4.7
2018-03-26T19:45:07.994Z,4.6
2018-03-26T19:50:03.350Z,4.6
2018-03-26T19:55:05.260Z,4.4
2018-03-26T20:00:37.981Z,4.3
2018-03-26T20:05:05.818Z,4.2
2018-03-26T20:10:08.145Z,4.3
2018-03-26T20:15:08.360Z,4.3
2018-03-26T20:20:20.470Z,4.3
2018-03-26T20:25:08.104Z,4.3
2018-03-26T20:30:27.715Z,4.3
2018-03-26T20:35:05.522Z,4.3
2018-03-26T20:40:12.755Z,4.3
2018-03-26T20:45:02.832Z,4.3
2018-03-26T20:50:03.136Z,4.3
2018-03-26T20:55:27.762Z,4.4
2018-03-26T21:00:08.163Z,4.3
2018-03-26T21:05:04.960Z,4.4
2018-03-26T21:10:05.316Z,4.3
2018-03-26T21:15:20.928Z,4.3
2018-03-26T21:20:10.972Z,4.2
2018-03-26T21:25:02.649Z,4.2
2018-03-26T21:30:08.018Z,4.1
2018-03-26T21:35:05.762Z,4.1
2018-03-26T21:40:05.111Z,4.1
2018-03-26T21:45:02.863Z,4.1
2018-03-26T21:50:04.958Z,4
2018-03-26T21:55:15.433Z,4
2018-03-26T22:00:02.743Z,4
2018-03-26T22:05:05.676Z,4
2018-03-26T22:10:07.638Z,4
2018-03-26T22:15:05.288Z,3.9
2018-03-26T22:20:05.333Z,3.7
2018-03-26T22:30:03.388Z,3.8
2018-03-26T22:35:05.128Z,3.8
2018-03-26T22:40:05.477Z,3.8
2018-03-26T22:45:03.188Z,3.8
2018-03-26T22:50:17.714Z,3.8
2018-03-26T22:55:02.737Z,3.8
2018-03-26T23:00:18.228Z,3.6
2018-03-26T23:05:20.097Z,3.7
2018-03-26T23:10:05.364Z,3.6
2018-03-26T23:15:03.243Z,3.6
2018-03-26T23:20:02.677Z,3.6
2018-03-26T23:25:02.973Z,3.6
2018-03-26T23:30:05.797Z,3.6
2018-03-26T23:35:07.613Z,3.5
2018-03-26T23:40:02.459Z,3.5
2018-03-26T23:45:05.244Z,3.5
2018-03-26T23:50:05.074Z,3.5
2018-03-26T23:55:07.965Z,3.5
